sensor_id;sensor_type;location;lat;lon;timestamp;P1;durP1;ratioP1;P2;durP2;ratioP2
4839;SDS011;2434;48.486;7.964;2023-12-20T00:02:08;3.90;;;2.60;;
4839;SDS011;2434;48.486;7.964;2023-12-20T00:04:37;4.30;;;2.60;;
4839;SDS011;2434;48.486;7.964;2023-12-20T00:07:06;5.07;;;2.93;;
4839;SDS011;2434;48.486;7.964;2023-12-20T00:09:34;4.80;;;3.40;;
4839;SDS011;2434;48.486;7.964;2023-12-20T00:12:02;6.50;;;3.33;;
4839;SDS011;2434;48.486;7.964;2023-12-20T00:14:31;9.10;;;3.27;;
4839;SDS011;2434;48.486;7.964;2023-12-20T00:16:59;5.33;;;3.40;;
4839;SDS011;2434;48.486;7.964;2023-12-20T00:19:27;7.57;;;3.50;;
4839;SDS011;2434;48.486;7.964;2023-12-20T00:21:57;5.50;;;2.70;;
4839;SDS011;2434;48.486;7.964;2023-12-20T00:24:26;4.80;;;2.97;;
4839;SDS011;2434;48.486;7.964;2023-12-20T00:26:54;3.67;;;2.60;;
4839;SDS011;2434;48.486;7.964;2023-12-20T00:29:21;5.43;;;3.03;;
4839;SDS011;2434;48.486;7.964;2023-12-20T00:31:49;5.33;;;3.13;;
4839;SDS011;2434;48.486;7.964;2023-12-20T00:34:17;5.30;;;3.27;;
4839;SDS011;2434;48.486;7.964;2023-12-20T00:36:45;4.60;;;3.20;;
4839;SDS011;2434;48.486;7.964;2023-12-20T00:39:15;3.90;;;2.90;;
4839;SDS011;2434;48.486;7.964;2023-12-20T00:41:43;4.63;;;3.20;;
4839;SDS011;2434;48.486;7.964;2023-12-20T00:44:11;4.73;;;2.97;;
4839;SDS011;2434;48.486;7.964;2023-12-20T00:46:39;5.67;;;3.83;;
4839;SDS011;2434;48.486;7.964;2023-12-20T00:49:07;6.13;;;3.43;;
4839;SDS011;2434;48.486;7.964;2023-12-20T00:51:35;4.17;;;2.53;;
4839;SDS011;2434;48.486;7.964;2023-12-20T00:54:03;5.80;;;3.23;;
4839;SDS011;2434;48.486;7.964;2023-12-20T00:56:33;4.60;;;2.77;;
4839;SDS011;2434;48.486;7.964;2023-12-20T00:59:01;4.50;;;2.93;;
4839;SDS011;2434;48.486;7.964;2023-12-20T01:01:29;6.20;;;2.93;;
4839;SDS011;2434;48.486;7.964;2023-12-20T01:03:59;6.20;;;3.37;;
4839;SDS011;2434;48.486;7.964;2023-12-20T01:06:28;5.77;;;3.87;;
4839;SDS011;2434;48.486;7.964;2023-12-20T01:08:56;6.20;;;3.20;;
4839;SDS011;2434;48.486;7.964;2023-12-20T01:11:24;4.17;;;2.83;;
4839;SDS011;2434;48.486;7.964;2023-12-20T01:13:53;4.97;;;3.70;;
4839;SDS011;2434;48.486;7.964;2023-12-20T01:16:21;4.90;;;3.03;;
4839;SDS011;2434;48.486;7.964;2023-12-20T01:18:49;4.57;;;3.67;;
4839;SDS011;2434;48.486;7.964;2023-12-20T01:21:17;5.10;;;3.23;;
4839;SDS011;2434;48.486;7.964;2023-12-20T01:23:45;4.37;;;2.97;;
4839;SDS011;2434;48.486;7.964;2023-12-20T01:26:14;5.07;;;3.43;;
4839;SDS011;2434;48.486;7.964;2023-12-20T01:28:43;6.73;;;3.63;;
4839;SDS011;2434;48.486;7.964;2023-12-20T01:31:12;5.43;;;3.87;;
4839;SDS011;2434;48.486;7.964;2023-12-20T01:33:40;5.63;;;3.70;;
4839;SDS011;2434;48.486;7.964;2023-12-20T01:36:09;5.60;;;3.50;;
4839;SDS011;2434;48.486;7.964;2023-12-20T01:38:37;5.70;;;4.00;;
4839;SDS011;2434;48.486;7.964;2023-12-20T01:41:05;6.83;;;4.00;;
4839;SDS011;2434;48.486;7.964;2023-12-20T01:43:33;6.43;;;4.00;;
4839;SDS011;2434;48.486;7.964;2023-12-20T01:46:17;6.97;;;3.97;;
4839;SDS011;2434;48.486;7.964;2023-12-20T01:48:47;5.87;;;3.73;;
4839;SDS011;2434;48.486;7.964;2023-12-20T01:51:15;7.50;;;3.90;;
4839;SDS011;2434;48.486;7.964;2023-12-20T01:53:44;6.73;;;3.70;;
4839;SDS011;2434;48.486;7.964;2023-12-20T01:56:13;5.90;;;4.07;;
4839;SDS011;2434;48.486;7.964;2023-12-20T01:58:42;6.50;;;4.20;;
4839;SDS011;2434;48.486;7.964;2023-12-20T02:01:12;5.57;;;4.13;;
4839;SDS011;2434;48.486;7.964;2023-12-20T02:03:41;4.87;;;3.33;;
4839;SDS011;2434;48.486;7.964;2023-12-20T02:06:10;5.53;;;3.73;;
4839;SDS011;2434;48.486;7.964;2023-12-20T02:08:39;5.30;;;3.67;;
4839;SDS011;2434;48.486;7.964;2023-12-20T02:11:07;7.27;;;3.33;;
4839;SDS011;2434;48.486;7.964;2023-12-20T02:13:35;5.30;;;3.70;;
4839;SDS011;2434;48.486;7.964;2023-12-20T02:16:03;8.17;;;5.43;;
4839;SDS011;2434;48.486;7.964;2023-12-20T02:18:34;8.17;;;5.30;;
4839;SDS011;2434;48.486;7.964;2023-12-20T02:21:04;7.73;;;4.23;;
4839;SDS011;2434;48.486;7.964;2023-12-20T02:23:34;7.33;;;4.10;;
4839;SDS011;2434;48.486;7.964;2023-12-20T02:26:02;6.20;;;3.87;;
4839;SDS011;2434;48.486;7.964;2023-12-20T02:28:32;5.90;;;3.20;;
4839;SDS011;2434;48.486;7.964;2023-12-20T02:31:02;3.00;;;1.90;;
4839;SDS011;2434;48.486;7.964;2023-12-20T02:33:30;4.70;;;2.00;;
4839;SDS011;2434;48.486;7.964;2023-12-20T02:35:58;3.70;;;2.20;;
4839;SDS011;2434;48.486;7.964;2023-12-20T02:38:26;4.00;;;2.10;;
4839;SDS011;2434;48.486;7.964;2023-12-20T02:40:55;3.57;;;2.07;;
4839;SDS011;2434;48.486;7.964;2023-12-20T02:43:23;3.47;;;1.70;;
4839;SDS011;2434;48.486;7.964;2023-12-20T02:45:51;4.53;;;2.17;;
4839;SDS011;2434;48.486;7.964;2023-12-20T02:48:19;3.43;;;2.00;;
4839;SDS011;2434;48.486;7.964;2023-12-20T02:50:47;3.80;;;2.10;;
4839;SDS011;2434;48.486;7.964;2023-12-20T02:53:16;4.37;;;1.93;;
4839;SDS011;2434;48.486;7.964;2023-12-20T02:55:44;4.47;;;1.70;;
4839;SDS011;2434;48.486;7.964;2023-12-20T02:58:13;2.90;;;1.77;;
4839;SDS011;2434;48.486;7.964;2023-12-20T03:00:42;2.87;;;1.40;;
4839;SDS011;2434;48.486;7.964;2023-12-20T03:03:10;2.60;;;1.33;;
4839;SDS011;2434;48.486;7.964;2023-12-20T03:05:38;3.50;;;1.80;;
4839;SDS011;2434;48.486;7.964;2023-12-20T03:08:06;2.60;;;1.80;;
4839;SDS011;2434;48.486;7.964;2023-12-20T03:10:34;4.83;;;2.00;;
4839;SDS011;2434;48.486;7.964;2023-12-20T03:13:02;2.70;;;1.60;;
4839;SDS011;2434;48.486;7.964;2023-12-20T03:15:32;3.03;;;1.80;;
4839;SDS011;2434;48.486;7.964;2023-12-20T03:18:00;5.40;;;1.60;;
4839;SDS011;2434;48.486;7.964;2023-12-20T03:20:29;3.13;;;1.70;;
4839;SDS011;2434;48.486;7.964;2023-12-20T03:22:59;2.80;;;1.70;;
4839;SDS011;2434;48.486;7.964;2023-12-20T03:25:27;3.23;;;1.60;;
4839;SDS011;2434;48.486;7.964;2023-12-20T03:27:55;3.20;;;1.50;;
4839;SDS011;2434;48.486;7.964;2023-12-20T03:30:23;4.77;;;1.90;;
4839;SDS011;2434;48.486;7.964;2023-12-20T03:32:54;2.80;;;1.60;;
4839;SDS011;2434;48.486;7.964;2023-12-20T03:35:22;2.33;;;1.40;;
4839;SDS011;2434;48.486;7.964;2023-12-20T03:37:50;3.30;;;1.63;;
4839;SDS011;2434;48.486;7.964;2023-12-20T03:40:18;2.83;;;1.80;;
4839;SDS011;2434;48.486;7.964;2023-12-20T03:42:46;2.60;;;1.40;;
4839;SDS011;2434;48.486;7.964;2023-12-20T03:45:14;3.20;;;1.77;;
4839;SDS011;2434;48.486;7.964;2023-12-20T03:47:42;2.60;;;1.67;;
4839;SDS011;2434;48.486;7.964;2023-12-20T03:50:12;2.63;;;1.60;;
4839;SDS011;2434;48.486;7.964;2023-12-20T03:52:40;3.63;;;1.70;;
4839;SDS011;2434;48.486;7.964;2023-12-20T03:55:08;3.20;;;2.17;;
4839;SDS011;2434;48.486;7.964;2023-12-20T03:57:36;2.10;;;1.20;;
4839;SDS011;2434;48.486;7.964;2023-12-20T04:00:06;3.37;;;1.40;;
4839;SDS011;2434;48.486;7.964;2023-12-20T04:02:40;2.70;;;1.40;;
4839;SDS011;2434;48.486;7.964;2023-12-20T04:05:09;3.57;;;1.77;;
4839;SDS011;2434;48.486;7.964;2023-12-20T04:07:39;2.97;;;1.97;;
4839;SDS011;2434;48.486;7.964;2023-12-20T04:10:08;2.50;;;1.57;;
4839;SDS011;2434;48.486;7.964;2023-12-20T04:12:36;2.67;;;1.53;;
4839;SDS011;2434;48.486;7.964;2023-12-20T04:15:04;3.13;;;1.40;;
4839;SDS011;2434;48.486;7.964;2023-12-20T04:17:36;3.73;;;1.50;;
4839;SDS011;2434;48.486;7.964;2023-12-20T04:20:04;2.37;;;1.23;;
4839;SDS011;2434;48.486;7.964;2023-12-20T04:22:33;2.40;;;1.10;;
4839;SDS011;2434;48.486;7.964;2023-12-20T04:25:03;2.60;;;1.43;;
4839;SDS011;2434;48.486;7.964;2023-12-20T04:27:31;2.80;;;1.50;;
4839;SDS011;2434;48.486;7.964;2023-12-20T04:29:59;2.13;;;1.27;;
4839;SDS011;2434;48.486;7.964;2023-12-20T04:32:28;3.10;;;1.63;;
4839;SDS011;2434;48.486;7.964;2023-12-20T04:34:56;2.13;;;1.00;;
4839;SDS011;2434;48.486;7.964;2023-12-20T04:37:24;2.40;;;1.10;;
4839;SDS011;2434;48.486;7.964;2023-12-20T04:39:52;2.30;;;1.27;;
4839;SDS011;2434;48.486;7.964;2023-12-20T04:42:22;2.60;;;1.37;;
4839;SDS011;2434;48.486;7.964;2023-12-20T04:44:50;2.80;;;1.60;;
4839;SDS011;2434;48.486;7.964;2023-12-20T04:47:18;6.43;;;3.23;;
4839;SDS011;2434;48.486;7.964;2023-12-20T04:49:46;2.80;;;1.53;;
4839;SDS011;2434;48.486;7.964;2023-12-20T04:52:15;2.47;;;1.20;;
4839;SDS011;2434;48.486;7.964;2023-12-20T04:54:43;2.40;;;1.23;;
4839;SDS011;2434;48.486;7.964;2023-12-20T04:57:11;8.00;;;1.70;;
4839;SDS011;2434;48.486;7.964;2023-12-20T04:59:41;2.27;;;1.17;;
4839;SDS011;2434;48.486;7.964;2023-12-20T05:02:09;2.60;;;1.40;;
4839;SDS011;2434;48.486;7.964;2023-12-20T05:04:38;2.13;;;1.13;;
4839;SDS011;2434;48.486;7.964;2023-12-20T05:07:06;2.17;;;1.37;;
4839;SDS011;2434;48.486;7.964;2023-12-20T05:09:34;5.37;;;1.87;;
4839;SDS011;2434;48.486;7.964;2023-12-20T05:12:02;3.47;;;1.70;;
4839;SDS011;2434;48.486;7.964;2023-12-20T05:14:31;2.40;;;1.30;;
4839;SDS011;2434;48.486;7.964;2023-12-20T05:17:00;3.57;;;2.00;;
4839;SDS011;2434;48.486;7.964;2023-12-20T05:19:29;2.50;;;1.23;;
4839;SDS011;2434;48.486;7.964;2023-12-20T05:21:57;3.07;;;1.37;;
4839;SDS011;2434;48.486;7.964;2023-12-20T05:24:25;2.10;;;1.13;;
4839;SDS011;2434;48.486;7.964;2023-12-20T05:26:54;4.03;;;1.30;;
4839;SDS011;2434;48.486;7.964;2023-12-20T05:29:22;3.00;;;1.30;;
4839;SDS011;2434;48.486;7.964;2023-12-20T05:31:50;2.47;;;1.40;;
4839;SDS011;2434;48.486;7.964;2023-12-20T05:34:20;3.17;;;1.47;;
4839;SDS011;2434;48.486;7.964;2023-12-20T05:36:48;2.90;;;1.67;;
4839;SDS011;2434;48.486;7.964;2023-12-20T05:39:16;2.50;;;1.50;;
4839;SDS011;2434;48.486;7.964;2023-12-20T05:41:44;2.70;;;1.53;;
4839;SDS011;2434;48.486;7.964;2023-12-20T05:44:12;2.97;;;1.30;;
4839;SDS011;2434;48.486;7.964;2023-12-20T05:46:40;3.33;;;1.60;;
4839;SDS011;2434;48.486;7.964;2023-12-20T05:49:09;3.63;;;1.57;;
4839;SDS011;2434;48.486;7.964;2023-12-20T05:51:38;2.30;;;1.30;;
4839;SDS011;2434;48.486;7.964;2023-12-20T05:54:07;2.53;;;1.43;;
4839;SDS011;2434;48.486;7.964;2023-12-20T05:56:36;2.73;;;1.63;;
4839;SDS011;2434;48.486;7.964;2023-12-20T05:59:04;3.60;;;2.10;;
4839;SDS011;2434;48.486;7.964;2023-12-20T06:01:32;3.77;;;1.97;;
4839;SDS011;2434;48.486;7.964;2023-12-20T06:04:00;3.47;;;1.60;;
4839;SDS011;2434;48.486;7.964;2023-12-20T06:06:30;3.80;;;2.00;;
4839;SDS011;2434;48.486;7.964;2023-12-20T06:08:59;2.93;;;1.80;;
4839;SDS011;2434;48.486;7.964;2023-12-20T06:11:29;4.63;;;1.93;;
4839;SDS011;2434;48.486;7.964;2023-12-20T06:13:57;2.87;;;1.60;;
4839;SDS011;2434;48.486;7.964;2023-12-20T06:16:25;3.40;;;1.70;;
4839;SDS011;2434;48.486;7.964;2023-12-20T06:18:53;2.80;;;1.60;;
4839;SDS011;2434;48.486;7.964;2023-12-20T06:21:21;3.10;;;1.50;;
4839;SDS011;2434;48.486;7.964;2023-12-20T06:23:49;2.60;;;1.57;;
4839;SDS011;2434;48.486;7.964;2023-12-20T06:26:18;3.47;;;1.90;;
4839;SDS011;2434;48.486;7.964;2023-12-20T06:28:46;3.57;;;1.73;;
4839;SDS011;2434;48.486;7.964;2023-12-20T06:31:14;3.23;;;1.90;;
4839;SDS011;2434;48.486;7.964;2023-12-20T06:33:43;3.13;;;1.80;;
4839;SDS011;2434;48.486;7.964;2023-12-20T06:36:11;6.13;;;2.07;;
4839;SDS011;2434;48.486;7.964;2023-12-20T06:38:40;3.53;;;1.97;;
4839;SDS011;2434;48.486;7.964;2023-12-20T06:41:08;2.63;;;1.63;;
4839;SDS011;2434;48.486;7.964;2023-12-20T06:43:43;3.77;;;2.10;;
4839;SDS011;2434;48.486;7.964;2023-12-20T06:46:16;3.20;;;1.93;;
4839;SDS011;2434;48.486;7.964;2023-12-20T06:48:44;4.70;;;2.10;;
4839;SDS011;2434;48.486;7.964;2023-12-20T06:51:14;3.90;;;2.03;;
4839;SDS011;2434;48.486;7.964;2023-12-20T06:53:43;3.60;;;1.93;;
4839;SDS011;2434;48.486;7.964;2023-12-20T06:56:11;5.03;;;2.30;;
4839;SDS011;2434;48.486;7.964;2023-12-20T06:58:45;3.43;;;2.07;;
4839;SDS011;2434;48.486;7.964;2023-12-20T07:01:14;8.33;;;3.03;;
4839;SDS011;2434;48.486;7.964;2023-12-20T07:03:43;3.43;;;2.33;;
4839;SDS011;2434;48.486;7.964;2023-12-20T07:06:11;3.80;;;2.20;;
4839;SDS011;2434;48.486;7.964;2023-12-20T07:08:40;3.00;;;1.63;;
4839;SDS011;2434;48.486;7.964;2023-12-20T07:11:08;3.10;;;1.57;;
4839;SDS011;2434;48.486;7.964;2023-12-20T07:13:36;3.10;;;2.00;;
4839;SDS011;2434;48.486;7.964;2023-12-20T07:16:06;3.73;;;2.03;;
4839;SDS011;2434;48.486;7.964;2023-12-20T07:18:34;3.40;;;1.90;;
4839;SDS011;2434;48.486;7.964;2023-12-20T07:21:03;4.33;;;2.03;;
4839;SDS011;2434;48.486;7.964;2023-12-20T07:23:31;4.40;;;2.10;;
4839;SDS011;2434;48.486;7.964;2023-12-20T07:25:59;4.70;;;2.50;;
4839;SDS011;2434;48.486;7.964;2023-12-20T07:28:27;4.50;;;2.10;;
4839;SDS011;2434;48.486;7.964;2023-12-20T07:30:55;3.83;;;2.30;;
4839;SDS011;2434;48.486;7.964;2023-12-20T07:33:24;3.93;;;2.33;;
4839;SDS011;2434;48.486;7.964;2023-12-20T07:35:52;4.70;;;2.30;;
4839;SDS011;2434;48.486;7.964;2023-12-20T07:38:21;3.27;;;2.20;;
4839;SDS011;2434;48.486;7.964;2023-12-20T07:40:49;3.37;;;2.17;;
4839;SDS011;2434;48.486;7.964;2023-12-20T07:43:17;4.00;;;2.50;;
4839;SDS011;2434;48.486;7.964;2023-12-20T07:45:45;4.37;;;2.80;;
4839;SDS011;2434;48.486;7.964;2023-12-20T07:48:13;2.87;;;1.63;;
4839;SDS011;2434;48.486;7.964;2023-12-20T07:50:43;4.77;;;2.37;;
4839;SDS011;2434;48.486;7.964;2023-12-20T07:53:11;4.17;;;2.20;;
4839;SDS011;2434;48.486;7.964;2023-12-20T07:55:39;3.30;;;1.90;;
4839;SDS011;2434;48.486;7.964;2023-12-20T07:58:07;2.97;;;1.57;;
4839;SDS011;2434;48.486;7.964;2023-12-20T08:00:36;3.20;;;1.77;;
4839;SDS011;2434;48.486;7.964;2023-12-20T08:03:04;3.73;;;1.90;;
4839;SDS011;2434;48.486;7.964;2023-12-20T08:05:33;2.70;;;1.80;;
4839;SDS011;2434;48.486;7.964;2023-12-20T08:08:03;2.70;;;1.67;;
4839;SDS011;2434;48.486;7.964;2023-12-20T08:10:31;3.10;;;1.80;;
4839;SDS011;2434;48.486;7.964;2023-12-20T08:12:59;4.63;;;2.97;;
4839;SDS011;2434;48.486;7.964;2023-12-20T08:15:27;6.47;;;4.00;;
4839;SDS011;2434;48.486;7.964;2023-12-20T08:17:55;5.73;;;3.03;;
4839;SDS011;2434;48.486;7.964;2023-12-20T08:20:24;6.30;;;3.20;;
4839;SDS011;2434;48.486;7.964;2023-12-20T08:23:06;10.03;;;5.07;;
4839;SDS011;2434;48.486;7.964;2023-12-20T08:25:34;6.80;;;3.57;;
4839;SDS011;2434;48.486;7.964;2023-12-20T08:28:02;6.03;;;3.70;;
4839;SDS011;2434;48.486;7.964;2023-12-20T08:30:31;4.40;;;2.90;;
4839;SDS011;2434;48.486;7.964;2023-12-20T08:33:00;15.80;;;4.03;;
4839;SDS011;2434;48.486;7.964;2023-12-20T08:35:29;6.37;;;2.90;;
4839;SDS011;2434;48.486;7.964;2023-12-20T08:37:57;7.23;;;3.67;;
4839;SDS011;2434;48.486;7.964;2023-12-20T08:40:26;4.50;;;2.63;;
4839;SDS011;2434;48.486;7.964;2023-12-20T08:42:54;8.27;;;2.63;;
4839;SDS011;2434;48.486;7.964;2023-12-20T08:45:22;5.33;;;2.70;;
4839;SDS011;2434;48.486;7.964;2023-12-20T08:47:51;4.50;;;2.93;;
4839;SDS011;2434;48.486;7.964;2023-12-20T08:50:19;6.37;;;3.10;;
4839;SDS011;2434;48.486;7.964;2023-12-20T08:52:47;4.00;;;2.63;;
4839;SDS011;2434;48.486;7.964;2023-12-20T08:55:15;4.03;;;2.83;;
4839;SDS011;2434;48.486;7.964;2023-12-20T08:57:46;5.50;;;3.30;;
4839;SDS011;2434;48.486;7.964;2023-12-20T09:00:14;6.83;;;3.43;;
4839;SDS011;2434;48.486;7.964;2023-12-20T09:02:43;5.80;;;2.93;;
4839;SDS011;2434;48.486;7.964;2023-12-20T09:05:11;6.03;;;3.17;;
4839;SDS011;2434;48.486;7.964;2023-12-20T09:07:39;8.70;;;3.30;;
4839;SDS011;2434;48.486;7.964;2023-12-20T09:10:07;7.83;;;3.90;;
4839;SDS011;2434;48.486;7.964;2023-12-20T09:12:36;5.63;;;3.90;;
4839;SDS011;2434;48.486;7.964;2023-12-20T09:15:08;6.93;;;4.10;;
4839;SDS011;2434;48.486;7.964;2023-12-20T09:17:36;8.40;;;3.90;;
4839;SDS011;2434;48.486;7.964;2023-12-20T09:20:04;7.13;;;3.90;;
4839;SDS011;2434;48.486;7.964;2023-12-20T09:22:34;6.53;;;4.20;;
4839;SDS011;2434;48.486;7.964;2023-12-20T09:25:05;6.93;;;3.97;;
4839;SDS011;2434;48.486;7.964;2023-12-20T09:27:33;6.20;;;3.70;;
4839;SDS011;2434;48.486;7.964;2023-12-20T09:30:01;7.10;;;3.93;;
4839;SDS011;2434;48.486;7.964;2023-12-20T09:32:31;8.80;;;3.13;;
4839;SDS011;2434;48.486;7.964;2023-12-20T09:35:01;5.90;;;3.30;;
4839;SDS011;2434;48.486;7.964;2023-12-20T09:37:32;6.73;;;2.97;;
4839;SDS011;2434;48.486;7.964;2023-12-20T09:40:00;5.10;;;2.60;;
4839;SDS011;2434;48.486;7.964;2023-12-20T09:42:29;6.20;;;2.60;;
4839;SDS011;2434;48.486;7.964;2023-12-20T09:45:06;6.93;;;2.37;;
4839;SDS011;2434;48.486;7.964;2023-12-20T09:47:38;7.40;;;2.80;;
4839;SDS011;2434;48.486;7.964;2023-12-20T09:50:07;7.30;;;2.90;;
4839;SDS011;2434;48.486;7.964;2023-12-20T09:52:36;4.70;;;2.20;;
4839;SDS011;2434;48.486;7.964;2023-12-20T09:55:07;8.30;;;2.40;;
4839;SDS011;2434;48.486;7.964;2023-12-20T09:57:36;7.80;;;2.53;;
4839;SDS011;2434;48.486;7.964;2023-12-20T10:00:05;7.40;;;2.80;;
4839;SDS011;2434;48.486;7.964;2023-12-20T10:02:39;9.60;;;2.40;;
4839;SDS011;2434;48.486;7.964;2023-12-20T10:05:15;4.60;;;2.83;;
4839;SDS011;2434;48.486;7.964;2023-12-20T10:07:46;4.10;;;2.00;;
4839;SDS011;2434;48.486;7.964;2023-12-20T10:10:15;5.20;;;2.77;;
4839;SDS011;2434;48.486;7.964;2023-12-20T10:12:46;7.23;;;2.43;;
4839;SDS011;2434;48.486;7.964;2023-12-20T10:15:30;6.40;;;2.03;;
4839;SDS011;2434;48.486;7.964;2023-12-20T10:18:00;5.07;;;1.90;;
4839;SDS011;2434;48.486;7.964;2023-12-20T10:20:29;6.27;;;1.87;;
4839;SDS011;2434;48.486;7.964;2023-12-20T10:22:58;3.40;;;2.07;;
4839;SDS011;2434;48.486;7.964;2023-12-20T10:25:27;6.23;;;2.60;;
4839;SDS011;2434;48.486;7.964;2023-12-20T10:28:08;9.07;;;2.40;;
4839;SDS011;2434;48.486;7.964;2023-12-20T10:30:38;5.20;;;2.10;;
4839;SDS011;2434;48.486;7.964;2023-12-20T10:33:08;6.20;;;2.50;;
4839;SDS011;2434;48.486;7.964;2023-12-20T10:35:38;9.83;;;2.30;;
4839;SDS011;2434;48.486;7.964;2023-12-20T10:38:11;7.83;;;2.10;;
4839;SDS011;2434;48.486;7.964;2023-12-20T10:40:40;6.40;;;2.20;;
4839;SDS011;2434;48.486;7.964;2023-12-20T10:43:10;5.63;;;2.27;;
4839;SDS011;2434;48.486;7.964;2023-12-20T10:45:40;7.37;;;2.00;;
4839;SDS011;2434;48.486;7.964;2023-12-20T10:48:11;8.30;;;2.50;;
4839;SDS011;2434;48.486;7.964;2023-12-20T10:50:39;7.23;;;2.50;;
4839;SDS011;2434;48.486;7.964;2023-12-20T10:53:09;3.40;;;2.13;;
4839;SDS011;2434;48.486;7.964;2023-12-20T10:55:38;10.07;;;2.20;;
4839;SDS011;2434;48.486;7.964;2023-12-20T10:58:07;7.33;;;3.00;;
4839;SDS011;2434;48.486;7.964;2023-12-20T11:00:36;5.03;;;1.97;;
4839;SDS011;2434;48.486;7.964;2023-12-20T11:03:08;5.07;;;2.47;;
4839;SDS011;2434;48.486;7.964;2023-12-20T11:05:40;7.43;;;2.07;;
4839;SDS011;2434;48.486;7.964;2023-12-20T11:08:17;7.33;;;2.23;;
4839;SDS011;2434;48.486;7.964;2023-12-20T11:10:51;6.80;;;2.20;;
4839;SDS011;2434;48.486;7.964;2023-12-20T11:13:28;5.80;;;2.43;;
4839;SDS011;2434;48.486;7.964;2023-12-20T11:16:00;9.80;;;2.10;;
4839;SDS011;2434;48.486;7.964;2023-12-20T11:18:29;5.07;;;2.37;;
4839;SDS011;2434;48.486;7.964;2023-12-20T11:21:01;10.10;;;2.97;;
4839;SDS011;2434;48.486;7.964;2023-12-20T11:23:32;7.60;;;2.60;;
4839;SDS011;2434;48.486;7.964;2023-12-20T11:26:01;10.73;;;3.23;;
4839;SDS011;2434;48.486;7.964;2023-12-20T11:28:30;7.83;;;3.17;;
4839;SDS011;2434;48.486;7.964;2023-12-20T11:30:58;5.40;;;2.33;;
4839;SDS011;2434;48.486;7.964;2023-12-20T11:33:29;5.17;;;1.90;;
4839;SDS011;2434;48.486;7.964;2023-12-20T11:35:58;7.20;;;2.67;;
4839;SDS011;2434;48.486;7.964;2023-12-20T11:38:28;8.10;;;3.57;;
4839;SDS011;2434;48.486;7.964;2023-12-20T11:41:05;5.87;;;2.77;;
4839;SDS011;2434;48.486;7.964;2023-12-20T11:43:36;8.50;;;3.07;;
4839;SDS011;2434;48.486;7.964;2023-12-20T11:46:06;5.73;;;2.93;;
4839;SDS011;2434;48.486;7.964;2023-12-20T11:48:37;4.37;;;2.40;;
4839;SDS011;2434;48.486;7.964;2023-12-20T11:51:08;5.53;;;2.17;;
4839;SDS011;2434;48.486;7.964;2023-12-20T11:53:38;7.33;;;2.30;;
4839;SDS011;2434;48.486;7.964;2023-12-20T11:56:08;8.97;;;2.73;;
4839;SDS011;2434;48.486;7.964;2023-12-20T11:58:37;10.27;;;3.33;;
4839;SDS011;2434;48.486;7.964;2023-12-20T12:01:06;7.00;;;2.57;;
4839;SDS011;2434;48.486;7.964;2023-12-20T12:03:35;5.40;;;2.13;;
4839;SDS011;2434;48.486;7.964;2023-12-20T12:06:03;6.30;;;2.47;;
4839;SDS011;2434;48.486;7.964;2023-12-20T12:08:32;7.10;;;2.83;;
4839;SDS011;2434;48.486;7.964;2023-12-20T12:11:02;7.70;;;2.67;;
4839;SDS011;2434;48.486;7.964;2023-12-20T12:13:30;7.43;;;2.67;;
4839;SDS011;2434;48.486;7.964;2023-12-20T12:15:58;7.93;;;2.87;;
4839;SDS011;2434;48.486;7.964;2023-12-20T12:18:27;6.83;;;3.10;;
4839;SDS011;2434;48.486;7.964;2023-12-20T12:20:59;6.13;;;2.83;;
4839;SDS011;2434;48.486;7.964;2023-12-20T12:23:38;10.50;;;2.93;;
4839;SDS011;2434;48.486;7.964;2023-12-20T12:26:07;11.70;;;3.30;;
4839;SDS011;2434;48.486;7.964;2023-12-20T12:28:36;5.77;;;2.50;;
4839;SDS011;2434;48.486;7.964;2023-12-20T12:31:07;5.37;;;2.77;;
4839;SDS011;2434;48.486;7.964;2023-12-20T12:33:36;6.40;;;2.30;;
4839;SDS011;2434;48.486;7.964;2023-12-20T12:36:04;8.30;;;2.70;;
4839;SDS011;2434;48.486;7.964;2023-12-20T12:38:34;7.47;;;2.40;;
4839;SDS011;2434;48.486;7.964;2023-12-20T12:41:02;5.57;;;2.67;;
4839;SDS011;2434;48.486;7.964;2023-12-20T12:43:33;6.10;;;3.10;;
4839;SDS011;2434;48.486;7.964;2023-12-20T12:46:02;12.93;;;3.00;;
4839;SDS011;2434;48.486;7.964;2023-12-20T12:48:30;12.40;;;3.00;;
4839;SDS011;2434;48.486;7.964;2023-12-20T12:51:00;13.20;;;3.10;;
4839;SDS011;2434;48.486;7.964;2023-12-20T12:53:28;11.87;;;3.17;;
4839;SDS011;2434;48.486;7.964;2023-12-20T12:55:56;8.00;;;2.87;;
4839;SDS011;2434;48.486;7.964;2023-12-20T12:58:24;13.87;;;3.10;;
4839;SDS011;2434;48.486;7.964;2023-12-20T13:00:54;6.77;;;2.77;;
4839;SDS011;2434;48.486;7.964;2023-12-20T13:03:22;8.63;;;2.57;;
4839;SDS011;2434;48.486;7.964;2023-12-20T13:05:50;8.53;;;2.80;;
4839;SDS011;2434;48.486;7.964;2023-12-20T13:08:18;11.83;;;2.57;;
4839;SDS011;2434;48.486;7.964;2023-12-20T13:10:46;7.07;;;2.40;;
4839;SDS011;2434;48.486;7.964;2023-12-20T13:13:15;6.73;;;2.37;;
4839;SDS011;2434;48.486;7.964;2023-12-20T13:15:43;33.67;;;17.77;;
4839;SDS011;2434;48.486;7.964;2023-12-20T13:18:18;24.87;;;13.07;;
4839;SDS011;2434;48.486;7.964;2023-12-20T13:20:46;17.00;;;6.93;;
4839;SDS011;2434;48.486;7.964;2023-12-20T13:23:15;17.67;;;6.33;;
4839;SDS011;2434;48.486;7.964;2023-12-20T13:25:44;6.83;;;3.87;;
4839;SDS011;2434;48.486;7.964;2023-12-20T13:28:13;10.30;;;3.83;;
4839;SDS011;2434;48.486;7.964;2023-12-20T13:30:41;11.13;;;4.70;;
4839;SDS011;2434;48.486;7.964;2023-12-20T13:33:09;12.17;;;4.37;;
4839;SDS011;2434;48.486;7.964;2023-12-20T13:35:40;10.80;;;2.80;;
4839;SDS011;2434;48.486;7.964;2023-12-20T13:38:08;9.10;;;3.10;;
4839;SDS011;2434;48.486;7.964;2023-12-20T13:40:36;9.80;;;3.03;;
4839;SDS011;2434;48.486;7.964;2023-12-20T13:43:04;14.63;;;3.10;;
4839;SDS011;2434;48.486;7.964;2023-12-20T13:45:32;10.97;;;3.00;;
4839;SDS011;2434;48.486;7.964;2023-12-20T13:48:00;16.17;;;3.87;;
4839;SDS011;2434;48.486;7.964;2023-12-20T13:50:29;10.87;;;3.57;;
4839;SDS011;2434;48.486;7.964;2023-12-20T13:52:58;6.77;;;2.87;;
4839;SDS011;2434;48.486;7.964;2023-12-20T13:55:27;8.67;;;3.33;;
4839;SDS011;2434;48.486;7.964;2023-12-20T13:57:55;13.27;;;3.27;;
4839;SDS011;2434;48.486;7.964;2023-12-20T14:00:24;11.73;;;3.37;;
4839;SDS011;2434;48.486;7.964;2023-12-20T14:02:52;6.50;;;3.30;;
4839;SDS011;2434;48.486;7.964;2023-12-20T14:05:20;10.93;;;3.23;;
4839;SDS011;2434;48.486;7.964;2023-12-20T14:07:54;11.67;;;3.00;;
4839;SDS011;2434;48.486;7.964;2023-12-20T14:10:25;13.27;;;2.30;;
4839;SDS011;2434;48.486;7.964;2023-12-20T14:12:54;12.63;;;2.83;;
4839;SDS011;2434;48.486;7.964;2023-12-20T14:15:22;8.93;;;2.50;;
4839;SDS011;2434;48.486;7.964;2023-12-20T14:17:52;8.10;;;2.87;;
4839;SDS011;2434;48.486;7.964;2023-12-20T14:20:21;9.60;;;3.13;;
4839;SDS011;2434;48.486;7.964;2023-12-20T14:22:49;10.80;;;3.17;;
4839;SDS011;2434;48.486;7.964;2023-12-20T14:25:17;10.83;;;2.33;;
4839;SDS011;2434;48.486;7.964;2023-12-20T14:27:47;15.63;;;2.70;;
4839;SDS011;2434;48.486;7.964;2023-12-20T14:30:15;6.57;;;2.10;;
4839;SDS011;2434;48.486;7.964;2023-12-20T14:32:44;6.87;;;2.43;;
4839;SDS011;2434;48.486;7.964;2023-12-20T14:35:12;6.80;;;2.13;;
4839;SDS011;2434;48.486;7.964;2023-12-20T14:37:41;8.60;;;2.37;;
4839;SDS011;2434;48.486;7.964;2023-12-20T14:40:10;11.33;;;2.80;;
4839;SDS011;2434;48.486;7.964;2023-12-20T14:42:42;9.77;;;4.10;;
4839;SDS011;2434;48.486;7.964;2023-12-20T14:45:12;7.30;;;2.60;;
4839;SDS011;2434;48.486;7.964;2023-12-20T14:47:42;10.30;;;3.00;;
4839;SDS011;2434;48.486;7.964;2023-12-20T14:50:11;10.10;;;2.70;;
4839;SDS011;2434;48.486;7.964;2023-12-20T14:52:45;9.50;;;3.17;;
4839;SDS011;2434;48.486;7.964;2023-12-20T14:55:13;6.93;;;2.53;;
4839;SDS011;2434;48.486;7.964;2023-12-20T14:57:42;7.50;;;3.00;;
4839;SDS011;2434;48.486;7.964;2023-12-20T15:00:12;7.07;;;2.30;;
4839;SDS011;2434;48.486;7.964;2023-12-20T15:02:43;6.07;;;2.53;;
4839;SDS011;2434;48.486;7.964;2023-12-20T15:05:11;7.53;;;2.40;;
4839;SDS011;2434;48.486;7.964;2023-12-20T15:07:40;12.13;;;2.33;;
4839;SDS011;2434;48.486;7.964;2023-12-20T15:10:09;10.60;;;2.30;;
4839;SDS011;2434;48.486;7.964;2023-12-20T15:12:37;6.30;;;2.87;;
4839;SDS011;2434;48.486;7.964;2023-12-20T15:15:06;8.00;;;2.07;;
4839;SDS011;2434;48.486;7.964;2023-12-20T15:17:37;9.23;;;2.43;;
4839;SDS011;2434;48.486;7.964;2023-12-20T15:20:05;5.90;;;2.03;;
4839;SDS011;2434;48.486;7.964;2023-12-20T15:22:36;10.10;;;2.57;;
4839;SDS011;2434;48.486;7.964;2023-12-20T15:25:06;6.73;;;2.47;;
4839;SDS011;2434;48.486;7.964;2023-12-20T15:27:35;9.57;;;2.43;;